Aviation Digital Data Service (ADDS)

Output produced by METARs form (1951 UTC 17 November 2019)
found at http://www.aviationweather.gov/metar/data/
 
METAR text: RJOF 171929Z 14018G28KT 9999 FEW035 BKN060 BKN140 20/14 Q1015 RMK 1CU035 6SC060 6AC140 A2999
Conditions at: RJOF (HOFU (JASDF) , JP) observed 1929 UTC 17 November 2019
Temperature: 20.0°C (68°F)
Dewpoint: 14.0°C (57°F) [RH = 68%]
Pressure (altimeter): 29.97 inches Hg (1015.0 mb)
Winds: from the SE (140 degrees) at 21 MPH (18 knots; 9.3 m/s)
gusting to 32 MPH (28 knots; 14.4 m/s)
Visibility: 6 or more miles (10+ km)
Ceiling: 6000 feet AGL
Clouds: few clouds at 3500 feet AGL
broken clouds at 6000 feet AGL
broken clouds at 14000 feet AGL
Weather: no significant weather observed at this time

METAR text: RJOF 171823Z 14014KT 9999 FEW035 BKN060 20/14 Q1017 RMK 1CU035 5SC060 A3004
Conditions at: RJOF (HOFU (JASDF) , JP) observed 1823 UTC 17 November 2019
Temperature: 20.0°C (68°F)
Dewpoint: 14.0°C (57°F) [RH = 68%]
Pressure (altimeter): 30.03 inches Hg (1017.0 mb)
Winds: from the SE (140 degrees) at 16 MPH (14 knots; 7.2 m/s)
Visibility: 6 or more miles (10+ km)
Ceiling: 6000 feet AGL
Clouds: few clouds at 3500 feet AGL
broken clouds at 6000 feet AGL
Weather: no significant weather observed at this time

METAR text: RJOF 171333Z 15010KT 9999 FEW025 19/13 Q1020 RMK 1CU025 A3015
Conditions at: RJOF (HOFU (JASDF) , JP) observed 1333 UTC 17 November 2019
Temperature: 19.0°C (66°F)
Dewpoint: 13.0°C (55°F) [RH = 68%]
Pressure (altimeter): 30.12 inches Hg (1020.0 mb)
Winds: from the SSE (150 degrees) at 12 MPH (10 knots; 5.1 m/s)
Visibility: 6 or more miles (10+ km)
Ceiling: at least 12,000 feet AGL
Clouds: few clouds at 2500 feet AGL
Weather: no significant weather observed at this time

METAR text: RJOF 170618Z 11005KT 080V140 9999 FEW030 BKN120 BKN220 19/13 Q1021 RMK 1CU030 5AC120 A3016
Conditions at: RJOF (HOFU (JASDF) , JP) observed 0618 UTC 17 November 2019
Temperature: 19.0°C (66°F)
Dewpoint: 13.0°C (55°F) [RH = 68%]
Pressure (altimeter): 30.15 inches Hg (1021.0 mb)
Winds: from the ESE (110 degrees) at 6 MPH (5 knots; 2.6 m/s)
Visibility: 6 or more miles (10+ km)
Ceiling: 12000 feet AGL
Clouds: few clouds at 3000 feet AGL
broken clouds at 12000 feet AGL
broken clouds at 22000 feet AGL
Weather: no significant weather observed at this time